createdAt,value
2018-03-01T00:02:14.026Z,-9.00
2018-03-01T00:04:41.486Z,-9.00
2018-03-01T00:07:08.938Z,-8.90
2018-03-01T00:09:36.395Z,-8.90
2018-03-01T00:12:03.855Z,-8.90
2018-03-01T00:14:31.324Z,-8.90
2018-03-01T00:16:58.782Z,-8.90
2018-03-01T00:19:26.252Z,-8.80
2018-03-01T00:21:53.690Z,-8.80
2018-03-01T00:24:21.160Z,-8.70
2018-03-01T00:26:48.638Z,-8.60
2018-03-01T00:29:16.868Z,-8.70
2018-03-01T00:31:44.331Z,-8.70
2018-03-01T00:34:11.789Z,-8.70
2018-03-01T00:36:39.243Z,-8.80
2018-03-01T00:39:06.692Z,-8.80
2018-03-01T00:41:34.156Z,-8.80
2018-03-01T00:44:01.610Z,-8.70
2018-03-01T00:46:29.085Z,-8.80
2018-03-01T00:48:56.544Z,-8.80
2018-03-01T00:51:23.998Z,-8.80
2018-03-01T00:53:51.443Z,-8.80
2018-03-01T00:56:18.885Z,-8.80
2018-03-01T00:58:46.344Z,-8.80
2018-03-01T01:01:13.798Z,-8.80
2018-03-01T01:03:42.019Z,-8.80
2018-03-01T01:06:09.480Z,-8.90
2018-03-01T01:08:36.940Z,-8.80
2018-03-01T01:11:04.415Z,-8.80
2018-03-01T01:13:32.628Z,-8.80
2018-03-01T01:16:00.089Z,-8.80
2018-03-01T01:18:27.537Z,-8.90
2018-03-01T01:20:55.008Z,-8.80
2018-03-01T01:23:22.469Z,-8.80
2018-03-01T01:25:49.925Z,-8.90
2018-03-01T01:28:17.392Z,-8.90
2018-03-01T01:30:44.847Z,-8.90
2018-03-01T01:33:12.296Z,-8.90
2018-03-01T01:35:39.768Z,-8.90
2018-03-01T01:38:07.216Z,-8.90
2018-03-01T01:40:34.706Z,-8.90
2018-03-01T01:43:02.166Z,-8.90
2018-03-01T01:45:29.615Z,-9.00
2018-03-01T01:47:57.076Z,-9.00
2018-03-01T01:50:24.537Z,-9.00
2018-03-01T01:52:52.012Z,-9.00
2018-03-01T01:55:20.233Z,-9.00
2018-03-01T01:57:47.691Z,-9.00
2018-03-01T02:00:15.156Z,-9.10
2018-03-01T02:02:42.622Z,-9.10
2018-03-01T02:05:10.081Z,-9.30
2018-03-01T02:07:37.549Z,-9.40
2018-03-01T02:10:05.010Z,-9.40
2018-03-01T02:12:32.461Z,-9.60
2018-03-01T02:14:59.904Z,-9.70
2018-03-01T02:17:27.360Z,-9.70
2018-03-01T02:19:54.818Z,-9.80
2018-03-01T02:22:22.289Z,-9.90
2018-03-01T02:24:49.741Z,-10.00
2018-03-01T02:27:17.221Z,-10.10
2018-03-01T02:29:44.672Z,-10.20
2018-03-01T02:32:12.126Z,-10.30
2018-03-01T02:34:39.595Z,-10.30
2018-03-01T02:37:07.081Z,-10.30
2018-03-01T02:39:35.296Z,-10.30
2018-03-01T02:42:02.766Z,-10.30
2018-03-01T02:44:30.245Z,-10.40
2018-03-01T02:46:57.703Z,-10.50
2018-03-01T02:49:25.166Z,-10.60
2018-03-01T02:51:52.619Z,-10.50
2018-03-01T02:54:20.095Z,-10.60
2018-03-01T02:56:48.312Z,-10.50
2018-03-01T02:59:15.801Z,-10.60
2018-03-01T03:01:43.258Z,-10.50
2018-03-01T03:04:10.718Z,-10.40
2018-03-01T03:06:38.190Z,-10.20
2018-03-01T03:09:06.420Z,-9.90
2018-03-01T03:11:33.868Z,-9.90
2018-03-01T03:14:01.341Z,-9.70
2018-03-01T03:16:28.792Z,-9.60
2018-03-01T03:18:56.278Z,-9.50
2018-03-01T03:21:23.726Z,-9.40
2018-03-01T03:23:51.187Z,-9.30
2018-03-01T03:26:18.638Z,-9.30
2018-03-01T03:28:46.092Z,-9.30
2018-03-01T03:31:13.559Z,-9.20
2018-03-01T03:33:41.040Z,-9.20
2018-03-01T03:36:18.523Z,-9.20
2018-03-01T03:38:45.984Z,-9.20
2018-03-01T03:41:13.454Z,-9.20
2018-03-01T03:43:41.673Z,-9.20
2018-03-01T03:46:09.143Z,-9.30
2018-03-01T03:48:36.599Z,-9.20
2018-03-01T03:51:04.056Z,-9.20
2018-03-01T03:53:31.514Z,-9.20
2018-03-01T03:55:58.971Z,-9.30
2018-03-01T03:58:26.443Z,-9.30
2018-03-01T04:00:53.902Z,-9.30
2018-03-01T04:03:21.364Z,-9.30
2018-03-01T04:05:48.832Z,-9.20
2018-03-01T04:08:16.296Z,-9.30
2018-03-01T04:10:43.756Z,-9.30
2018-03-01T04:13:11.208Z,-9.40
2018-03-01T04:15:38.661Z,-9.40
2018-03-01T04:18:06.116Z,-9.50
2018-03-01T04:20:33.564Z,-9.50
2018-03-01T04:23:01.036Z,-9.70
2018-03-01T04:25:28.497Z,-9.80
2018-03-01T04:27:55.948Z,-9.90
2018-03-01T04:30:23.428Z,-10.00
2018-03-01T04:32:51.652Z,-10.00
2018-03-01T04:35:19.127Z,-10.00
2018-03-01T04:37:46.592Z,-10.00
2018-03-01T04:40:14.070Z,-10.00
2018-03-01T04:42:41.542Z,-10.00
2018-03-01T04:45:09.778Z,-9.90
2018-03-01T04:47:37.237Z,-9.90
2018-03-01T04:50:04.704Z,-9.90
2018-03-01T04:52:32.165Z,-9.80
2018-03-01T04:54:59.646Z,-9.70
2018-03-01T04:57:27.895Z,-9.70
2018-03-01T04:59:55.360Z,-9.70
2018-03-01T05:02:22.812Z,-9.60
2018-03-01T05:04:50.288Z,-9.60
2018-03-01T05:07:17.742Z,-9.50
2018-03-01T05:09:45.187Z,-9.50
2018-03-01T05:12:23.102Z,-9.60
2018-03-01T05:14:50.557Z,-9.50
2018-03-01T05:17:18.016Z,-9.50
2018-03-01T05:19:45.461Z,-9.50
2018-03-01T05:22:12.915Z,-9.50
2018-03-01T05:24:40.370Z,-9.50
2018-03-01T05:27:07.841Z,-9.50
2018-03-01T05:29:35.290Z,-9.50
2018-03-01T05:32:02.762Z,-9.50
2018-03-01T05:40:35.874Z,-9.70
2018-03-01T05:43:03.324Z,-9.70
2018-03-01T05:45:30.789Z,-9.70
2018-03-01T05:47:58.236Z,-9.70
2018-03-01T05:50:25.681Z,-9.80
2018-03-01T05:52:53.132Z,-9.90
2018-03-01T05:55:20.594Z,-9.90
2018-03-01T05:57:48.076Z,-10.00
2018-03-01T06:00:15.532Z,-10.00
2018-03-01T06:02:42.996Z,-10.10
2018-03-01T06:05:10.449Z,-10.10
2018-03-01T06:07:37.997Z,-10.20
2018-03-01T06:10:05.476Z,-10.20
2018-03-01T06:12:32.968Z,-10.30
2018-03-01T06:15:01.311Z,-10.30
2018-03-01T06:17:29.737Z,-10.20
2018-03-01T06:19:58.025Z,-10.20
2018-03-01T06:22:25.558Z,-10.20
2018-03-01T06:24:53.861Z,-10.20
2018-03-01T06:27:21.356Z,-10.20
2018-03-01T06:29:48.851Z,-10.10
2018-03-01T06:32:17.180Z,-10.00
2018-03-01T06:34:44.758Z,-10.10
2018-03-01T06:37:12.347Z,-10.00
2018-03-01T06:39:39.912Z,-10.00
2018-03-01T06:42:07.413Z,-10.00
2018-03-01T06:44:35.000Z,-9.90
2018-03-01T06:47:02.558Z,-9.80
2018-03-01T06:49:30.104Z,-9.80
2018-03-01T06:51:57.644Z,-9.80
2018-03-01T06:54:25.217Z,-9.80
2018-03-01T06:56:52.796Z,-9.80
2018-03-01T06:59:20.308Z,-9.80
2018-03-01T07:01:47.984Z,-9.80
2018-03-01T07:04:16.282Z,-9.70
2018-03-01T07:06:43.761Z,-9.70
2018-03-01T07:09:11.298Z,-9.60
2018-03-01T07:11:38.864Z,-9.50
2018-03-01T07:14:06.447Z,-9.50
2018-03-01T07:16:33.953Z,-9.40
2018-03-01T07:19:01.511Z,-9.40
2018-03-01T07:21:29.809Z,-9.20
2018-03-01T07:23:57.301Z,-9.20
2018-03-01T07:26:24.840Z,-9.10
2018-03-01T07:28:52.386Z,-9.00
2018-03-01T07:31:19.837Z,-8.90
2018-03-01T07:33:47.348Z,-8.90
2018-03-01T07:36:14.794Z,-8.80
2018-03-01T07:38:42.275Z,-8.80
2018-03-01T07:41:10.662Z,-8.70
2018-03-01T07:43:38.898Z,-8.70
2018-03-01T07:46:06.352Z,-8.70
2018-03-01T07:48:33.800Z,-8.60
2018-03-01T07:51:01.284Z,-8.60
2018-03-01T07:53:28.738Z,-8.50
2018-03-01T07:55:56.197Z,-8.50
2018-03-01T07:58:23.640Z,-8.40
2018-03-01T08:00:51.129Z,-8.30
2018-03-01T08:03:18.553Z,-8.30
2018-03-01T08:05:46.014Z,-8.30
2018-03-01T08:08:13.474Z,-8.20
2018-03-01T08:10:40.931Z,-8.20
2018-03-01T08:13:08.415Z,-8.10
2018-03-01T08:15:35.863Z,-8.10
2018-03-01T08:18:03.320Z,-8.00
2018-03-01T08:20:30.781Z,-7.90
2018-03-01T08:22:58.244Z,-7.90
2018-03-01T08:25:25.718Z,-7.80
2018-03-01T08:27:53.198Z,-7.80
2018-03-01T08:30:20.645Z,-7.80
2018-03-01T08:32:48.106Z,-7.70
2018-03-01T08:35:15.553Z,-7.70
2018-03-01T08:37:43.783Z,-7.60
2018-03-01T08:40:11.240Z,-7.60
2018-03-01T08:42:38.708Z,-7.50
2018-03-01T08:45:06.159Z,-7.50
2018-03-01T08:47:34.409Z,-7.40
2018-03-01T08:50:01.873Z,-7.40
2018-03-01T08:52:29.320Z,-7.30
2018-03-01T08:54:56.798Z,-7.20
2018-03-01T08:57:24.253Z,-7.20
2018-03-01T08:59:51.723Z,-7.10
2018-03-01T09:02:19.208Z,-7.00
2018-03-01T09:04:46.679Z,-6.90
2018-03-01T09:07:14.905Z,-6.80
2018-03-01T09:09:42.372Z,-6.80
2018-03-01T09:12:09.823Z,-6.70
2018-03-01T09:14:37.278Z,-6.70
2018-03-01T09:17:04.730Z,-6.60
2018-03-01T09:19:32.190Z,-6.60
2018-03-01T09:21:59.648Z,-6.50
2018-03-01T09:24:27.104Z,-6.40
2018-03-01T09:26:54.570Z,-6.40
2018-03-01T09:29:22.049Z,-6.30
2018-03-01T09:31:49.507Z,-6.30
2018-03-01T09:34:16.957Z,-6.20
2018-03-01T09:36:44.412Z,-6.10
2018-03-01T09:39:11.868Z,-6.10
2018-03-01T09:41:39.308Z,-6.00
2018-03-01T09:44:06.785Z,-6.00
2018-03-01T09:46:34.237Z,-6.00
2018-03-01T09:49:01.708Z,-6.00
2018-03-01T09:51:29.162Z,-5.90
2018-03-01T09:53:56.628Z,-5.90
2018-03-01T09:56:24.095Z,-5.90
2018-03-01T09:58:51.582Z,-5.90
2018-03-01T10:01:19.786Z,-5.90
2018-03-01T10:03:47.244Z,-5.90
2018-03-01T10:06:14.709Z,-5.80
2018-03-01T10:08:42.177Z,-5.80
2018-03-01T10:11:09.626Z,-5.70
2018-03-01T10:13:37.122Z,-5.70
2018-03-01T10:16:04.572Z,-5.60
2018-03-01T10:18:32.034Z,-5.60
2018-03-01T10:20:59.488Z,-5.50
2018-03-01T10:23:26.948Z,-5.40
2018-03-01T10:25:54.392Z,-5.40
2018-03-01T10:28:21.861Z,-5.40
2018-03-01T10:30:49.332Z,-5.30
2018-03-01T10:33:16.794Z,-5.30
2018-03-01T10:35:45.006Z,-5.20
2018-03-01T10:38:13.247Z,-5.20
2018-03-01T10:40:41.472Z,-5.20
2018-03-01T10:43:08.939Z,-5.20
2018-03-01T10:45:36.394Z,-5.10
2018-03-01T10:48:03.842Z,-5.10
2018-03-01T10:50:31.296Z,-5.10
2018-03-01T10:52:58.750Z,-5.10
2018-03-01T10:55:26.224Z,-5.00
2018-03-01T10:57:53.673Z,-5.10
2018-03-01T11:00:38.027Z,-5.00
2018-03-01T11:03:05.488Z,-4.90
2018-03-01T11:05:32.952Z,-4.90
2018-03-01T11:08:00.410Z,-4.80
2018-03-01T11:10:27.873Z,-4.80
2018-03-01T11:12:55.324Z,-4.80
2018-03-01T11:15:22.795Z,-4.80
2018-03-01T11:17:50.242Z,-4.70
2018-03-01T11:20:17.708Z,-4.70
2018-03-01T11:22:45.164Z,-4.70
2018-03-01T11:25:12.618Z,-4.70
2018-03-01T11:27:40.075Z,-4.70
2018-03-01T11:30:07.526Z,-4.70
2018-03-01T11:32:34.988Z,-4.60
2018-03-01T11:35:02.517Z,-4.60
2018-03-01T11:37:30.714Z,-4.60
2018-03-01T11:39:58.178Z,-4.60
2018-03-01T11:42:25.626Z,-4.50
2018-03-01T11:44:53.082Z,-4.50
2018-03-01T11:47:20.534Z,-4.50
2018-03-01T11:49:47.989Z,-4.50
2018-03-01T11:52:15.440Z,-4.50
2018-03-01T11:54:42.903Z,-4.50
2018-03-01T11:57:10.356Z,-4.40
2018-03-01T11:59:37.812Z,-4.40
2018-03-01T12:02:05.257Z,-4.30
2018-03-01T12:04:32.717Z,-4.30
2018-03-01T12:07:00.187Z,-4.30
2018-03-01T12:09:27.634Z,-4.20
2018-03-01T12:11:55.096Z,-4.10
2018-03-01T12:14:22.554Z,-4.10
2018-03-01T12:16:50.009Z,-4.00
2018-03-01T12:19:17.479Z,-3.90
2018-03-01T12:21:44.934Z,-3.90
2018-03-01T12:24:12.400Z,-3.90
2018-03-01T12:26:39.852Z,-3.90
2018-03-01T12:29:07.313Z,-3.90
2018-03-01T12:31:34.765Z,-3.90
2018-03-01T12:34:02.220Z,-3.80
2018-03-01T12:36:29.703Z,-3.80
2018-03-01T12:38:57.182Z,-3.80
2018-03-01T12:41:24.673Z,-3.70
2018-03-01T12:43:52.880Z,-3.60
2018-03-01T12:46:20.337Z,-3.60
2018-03-01T12:48:47.807Z,-3.60
2018-03-01T12:51:15.269Z,-3.60
2018-03-01T12:53:42.733Z,-3.60
2018-03-01T12:56:10.212Z,-3.50
2018-03-01T12:58:37.668Z,-3.40
2018-03-01T13:01:05.133Z,-3.40
2018-03-01T13:03:33.372Z,-3.30
2018-03-01T13:06:00.854Z,-3.30
2018-03-01T13:08:28.305Z,-3.30
2018-03-01T13:10:55.757Z,-3.30
2018-03-01T13:13:23.212Z,-3.30
2018-03-01T13:15:50.681Z,-3.30
2018-03-01T13:18:18.140Z,-3.30
2018-03-01T13:20:45.624Z,-3.40
2018-03-01T13:23:13.855Z,-3.40
2018-03-01T13:25:41.328Z,-3.40
2018-03-01T13:28:10.644Z,-3.30
2018-03-01T13:30:38.892Z,-3.30
2018-03-01T13:33:11.947Z,-3.30
2018-03-01T13:35:39.416Z,-3.30
2018-03-01T13:38:06.884Z,-3.30
2018-03-01T13:40:34.344Z,-3.40
2018-03-01T13:43:01.817Z,-3.40
2018-03-01T13:45:30.065Z,-3.30
2018-03-01T13:47:57.961Z,-3.30
2018-03-01T13:50:25.428Z,-3.30
2018-03-01T13:52:52.875Z,-3.30
2018-03-01T13:55:20.360Z,-3.20
2018-03-01T13:57:48.605Z,-3.20
2018-03-01T14:00:16.194Z,-3.30
2018-03-01T14:02:43.663Z,-3.20
2018-03-01T14:05:26.720Z,-3.30
2018-03-01T14:07:54.177Z,-3.30
2018-03-01T14:10:21.716Z,-3.40
2018-03-01T14:12:55.627Z,-3.50
2018-03-01T14:15:23.850Z,-3.50
2018-03-01T14:17:57.049Z,-3.50
2018-03-01T14:20:30.231Z,-3.50
2018-03-01T14:23:15.448Z,-3.50
2018-03-01T14:25:43.673Z,-3.40
2018-03-01T14:28:16.962Z,-3.40
2018-03-01T14:30:44.437Z,-3.40
2018-03-01T14:33:11.895Z,-3.40
2018-03-01T14:35:45.095Z,-3.50
2018-03-01T14:38:12.588Z,-3.50
2018-03-01T14:40:40.043Z,-3.60
2018-03-01T14:43:08.278Z,-3.60
2018-03-01T14:45:35.740Z,-3.60
2018-03-01T14:48:03.203Z,-3.50
2018-03-01T14:50:30.658Z,-3.60
2018-03-01T14:52:58.158Z,-3.60
2018-03-01T14:55:32.654Z,-3.70
2018-03-01T14:58:00.112Z,-3.70
2018-03-01T15:06:27.007Z,-3.70
2018-03-01T15:08:54.460Z,-3.60
2018-03-01T15:11:21.910Z,-3.70
2018-03-01T15:13:49.367Z,-3.70
2018-03-01T15:16:16.830Z,-3.70
2018-03-01T15:18:44.292Z,-3.70
2018-03-01T15:21:11.767Z,-3.80
2018-03-01T15:23:40.041Z,-3.80
2018-03-01T15:26:15.179Z,-3.80
2018-03-01T15:28:43.393Z,-3.80
2018-03-01T15:31:10.866Z,-3.80
2018-03-01T15:33:39.088Z,-3.80
2018-03-01T15:36:07.316Z,-3.80
2018-03-01T15:38:34.772Z,-3.80
2018-03-01T15:41:02.238Z,-3.90
2018-03-01T15:43:29.698Z,-3.90
2018-03-01T15:45:57.160Z,-3.90
2018-03-01T15:48:25.561Z,-3.90
2018-03-01T15:53:44.921Z,-3.90
2018-03-01T15:56:12.408Z,-4.00
2018-03-01T15:58:39.884Z,-4.00
2018-03-01T16:01:08.131Z,-4.10
2018-03-01T16:03:35.607Z,-4.10
2018-03-01T16:06:03.074Z,-4.10
2018-03-01T16:08:31.310Z,-4.20
2018-03-01T16:10:58.798Z,-4.20
2018-03-01T16:13:27.024Z,-4.20
2018-03-01T16:15:54.500Z,-4.20
2018-03-01T16:18:23.985Z,-4.30
2018-03-01T16:20:51.484Z,-4.30
2018-03-01T16:23:18.956Z,-4.40
2018-03-01T16:25:47.215Z,-4.40
2018-03-01T16:28:16.683Z,-4.40
2018-03-01T16:30:49.260Z,-4.50
2018-03-01T16:36:13.977Z,-4.60
2018-03-01T16:38:41.450Z,-4.60
2018-03-01T16:41:08.960Z,-4.60
2018-03-01T16:43:36.487Z,-4.60
2018-03-01T16:46:03.960Z,-4.60
2018-03-01T16:48:31.441Z,-4.60
2018-03-01T16:50:58.908Z,-4.70
2018-03-01T16:53:26.563Z,-4.70
2018-03-01T16:55:57.255Z,-4.80
2018-03-01T16:58:24.744Z,-4.80
2018-03-01T17:00:52.985Z,-4.80
2018-03-01T17:03:20.476Z,-4.80
2018-03-01T17:05:48.939Z,-4.80
2018-03-01T17:08:18.340Z,-4.80
2018-03-01T17:10:46.198Z,-4.80
2018-03-01T17:13:13.818Z,-4.80
2018-03-01T17:15:41.289Z,-4.80
2018-03-01T17:18:08.731Z,-4.80
2018-03-01T17:20:36.206Z,-4.90
2018-03-01T17:23:03.672Z,-4.90
2018-03-01T17:25:31.129Z,-4.90
2018-03-01T17:27:58.595Z,-4.90
2018-03-01T17:30:29.788Z,-5.00
2018-03-01T17:32:59.187Z,-5.00
2018-03-01T17:35:30.359Z,-5.00
2018-03-01T17:37:57.850Z,-5.00
2018-03-01T17:40:25.311Z,-5.10
2018-03-01T17:42:52.760Z,-5.10
2018-03-01T17:45:20.232Z,-5.10
2018-03-01T17:47:47.698Z,-5.10
2018-03-01T17:50:15.167Z,-5.10
2018-03-01T17:52:42.640Z,-5.10
2018-03-01T17:55:10.114Z,-5.10
2018-03-01T17:57:37.568Z,-5.20
2018-03-01T18:00:05.106Z,-5.20
2018-03-01T18:02:32.587Z,-5.20
2018-03-01T18:05:00.080Z,-5.30
2018-03-01T18:07:27.546Z,-5.30
2018-03-01T18:09:55.033Z,-5.30
2018-03-01T18:15:18.789Z,-5.30
2018-03-01T18:17:46.247Z,-5.30
2018-03-01T18:20:13.725Z,-5.30
2018-03-01T18:22:41.194Z,-5.30
2018-03-01T18:25:08.647Z,-5.20
2018-03-01T18:27:36.115Z,-5.30
2018-03-01T18:30:04.353Z,-5.30
2018-03-01T18:32:31.808Z,-5.30
2018-03-01T18:34:59.272Z,-5.30
2018-03-01T18:37:36.925Z,-5.30
2018-03-01T18:40:08.794Z,-5.40
2018-03-01T18:42:56.661Z,-5.40
2018-03-01T18:45:47.410Z,-5.40
2018-03-01T18:54:01.084Z,-5.40
2018-03-01T18:56:28.557Z,-5.50
2018-03-01T18:58:56.788Z,-5.60
2018-03-01T19:01:24.262Z,-5.60
2018-03-01T19:03:51.734Z,-5.60
2018-03-01T19:06:19.983Z,-5.50
2018-03-01T19:08:47.454Z,-5.60
2018-03-01T19:11:14.930Z,-5.50
2018-03-01T19:13:43.172Z,-5.60
2018-03-01T19:16:10.654Z,-5.60
2018-03-01T19:18:38.118Z,-5.60
2018-03-01T19:21:05.618Z,-5.60
2018-03-01T19:23:38.671Z,-5.70
2018-03-01T19:26:06.943Z,-5.70
2018-03-01T19:28:35.188Z,-5.70
2018-03-01T19:31:02.653Z,-5.70
2018-03-01T19:33:45.068Z,-5.70
2018-03-01T19:36:12.563Z,-5.70
2018-03-01T19:38:40.038Z,-5.80
2018-03-01T19:46:55.665Z,-5.90
2018-03-01T19:49:23.135Z,-5.90
2018-03-01T19:51:50.615Z,-6.00
2018-03-01T19:54:18.078Z,-6.00
2018-03-01T19:56:45.558Z,-6.00
2018-03-01T19:59:13.102Z,-6.00
2018-03-01T20:01:40.522Z,-6.00
2018-03-01T20:04:08.009Z,-6.00
2018-03-01T20:06:35.471Z,-6.00
2018-03-01T20:09:03.062Z,-6.10
2018-03-01T20:11:31.297Z,-6.20
2018-03-01T20:19:46.843Z,-6.30
2018-03-01T20:22:14.490Z,-6.30
2018-03-01T20:24:42.135Z,-6.30
2018-03-01T20:27:09.679Z,-6.30
2018-03-01T20:29:37.384Z,-6.40
2018-03-01T20:32:04.933Z,-6.40
2018-03-01T20:34:32.563Z,-6.40
2018-03-01T20:37:00.121Z,-6.40
2018-03-01T20:39:28.440Z,-6.40
2018-03-01T20:41:55.938Z,-6.40
2018-03-01T20:44:24.516Z,-6.40
2018-03-01T20:46:52.816Z,-6.40
2018-03-01T20:49:20.360Z,-6.40
2018-03-01T20:51:47.902Z,-6.50
2018-03-01T20:54:15.431Z,-6.50
2018-03-01T20:56:42.903Z,-6.50
2018-03-01T20:59:10.373Z,-6.50
2018-03-01T21:01:38.622Z,-6.50
2018-03-01T21:04:06.125Z,-6.50
2018-03-01T21:06:34.338Z,-6.50
2018-03-01T21:09:01.804Z,-6.60
2018-03-01T21:11:29.267Z,-6.50
2018-03-01T21:13:56.739Z,-6.60
2018-03-01T21:16:24.206Z,-6.60
2018-03-01T21:18:51.671Z,-6.60
2018-03-01T21:21:19.911Z,-6.60
2018-03-01T21:23:47.395Z,-6.60
2018-03-01T21:26:14.853Z,-6.60
2018-03-01T21:28:42.311Z,-6.60
2018-03-01T21:31:09.792Z,-6.60
2018-03-01T21:33:38.024Z,-6.70
2018-03-01T21:36:05.478Z,-6.70
2018-03-01T21:38:32.957Z,-6.70
2018-03-01T21:41:00.423Z,-6.70
2018-03-01T21:43:27.904Z,-6.70
2018-03-01T21:45:56.168Z,-6.80
2018-03-01T21:48:24.411Z,-6.80
2018-03-01T21:50:51.995Z,-6.80
2018-03-01T21:53:19.636Z,-6.90
2018-03-01T21:55:47.136Z,-6.90
2018-03-01T21:58:14.679Z,-6.90
2018-03-01T22:00:42.260Z,-6.90
2018-03-01T22:03:10.496Z,-6.90
2018-03-01T22:05:37.965Z,-6.90
2018-03-01T22:08:05.457Z,-7.00
2018-03-01T22:10:32.902Z,-7.00
2018-03-01T22:13:01.123Z,-7.00
2018-03-01T22:15:28.593Z,-7.00
2018-03-01T22:17:56.071Z,-7.00
2018-03-01T22:20:23.556Z,-7.00
2018-03-01T22:22:51.794Z,-7.00
2018-03-01T22:25:19.244Z,-7.00
2018-03-01T22:27:46.726Z,-7.00
2018-03-01T22:30:14.183Z,-7.00
2018-03-01T22:32:41.658Z,-7.00
2018-03-01T22:35:09.894Z,-7.00
2018-03-01T22:37:37.379Z,-7.00
2018-03-01T22:40:04.853Z,-7.00
2018-03-01T22:42:33.096Z,-7.00
2018-03-01T22:45:00.566Z,-7.00
2018-03-01T22:47:28.045Z,-7.10
2018-03-01T22:49:56.286Z,-7.00
2018-03-01T22:52:23.763Z,-7.00
2018-03-01T22:54:51.222Z,-7.00
2018-03-01T22:57:19.455Z,-7.10
2018-03-01T22:59:46.930Z,-7.10
2018-03-01T23:02:14.410Z,-7.10
2018-03-01T23:04:41.863Z,-7.10
2018-03-01T23:07:09.343Z,-7.10
2018-03-01T23:09:37.568Z,-7.20
2018-03-01T23:12:05.041Z,-7.20
2018-03-01T23:14:32.497Z,-7.20
2018-03-01T23:16:59.970Z,-7.20
2018-03-01T23:19:27.431Z,-7.30
2018-03-01T23:21:54.899Z,-7.30
2018-03-01T23:24:23.136Z,-7.40
2018-03-01T23:26:50.622Z,-7.40
2018-03-01T23:29:18.099Z,-7.30
2018-03-01T23:31:46.330Z,-7.40
2018-03-01T23:34:13.806Z,-7.40
2018-03-01T23:36:41.259Z,-7.40
2018-03-01T23:39:08.735Z,-7.40
2018-03-01T23:41:36.205Z,-7.30
2018-03-01T23:44:04.444Z,-7.40
2018-03-01T23:46:31.899Z,-7.40
2018-03-01T23:48:59.383Z,-7.40
2018-03-01T23:51:26.853Z,-7.40
2018-03-01T23:53:55.095Z,-7.30
2018-03-01T23:56:22.562Z,-7.40
2018-03-01T23:58:50.035Z,-7.40
